Terminal Aerodrome Forecast
Issued by NWS Pittsburgh, PA

Current Version | Previous Version | Graphics & Text | Print | Product List | Glossary On
Versions: 1 2 3 4 5 6 7 8 9 10 11 12 13 14 15 16 17 18 19 20 21 22 23 24 25 26 27 28 29 30 31 32 33 34 35
025
FTUS41 KPBZ 212055 AAA
TAFPIT
TAF AMD
KPIT 212055Z 2121/2224 19008KT P6SM OVC200
     FM221200 09004KT P6SM BKN080
     FM222100 10009KT 3SM -RA OVC025=

USA.gov is the U.S. government's official web portal to all federal, state and local government web resources and services.